sensor_id;sensor_type;location;lat;lon;timestamp;P1;durP1;ratioP1;P2;durP2;ratioP2
49061;SDS011;34873;49.142;9.118;2022-10-04T00:03:36;15.15;;;10.48;;
49061;SDS011;34873;49.142;9.118;2022-10-04T00:06:05;14.82;;;10.52;;
49061;SDS011;34873;49.142;9.118;2022-10-04T00:08:41;13.48;;;10.65;;
49061;SDS011;34873;49.142;9.118;2022-10-04T00:13:46;13.38;;;10.02;;
49061;SDS011;34873;49.142;9.118;2022-10-04T00:27:09;11.90;;;9.38;;
49061;SDS011;34873;49.142;9.118;2022-10-04T00:40:31;10.38;;;8.38;;
49061;SDS011;34873;49.142;9.118;2022-10-04T00:43:08;9.45;;;7.32;;
49061;SDS011;34873;49.142;9.118;2022-10-04T00:45:42;9.90;;;7.55;;
49061;SDS011;34873;49.142;9.118;2022-10-04T00:48:25;9.63;;;7.35;;
49061;SDS011;34873;49.142;9.118;2022-10-04T00:50:57;8.98;;;7.05;;
49061;SDS011;34873;49.142;9.118;2022-10-04T00:53:45;9.73;;;7.45;;
49061;SDS011;34873;49.142;9.118;2022-10-04T00:59:15;10.10;;;6.90;;
49061;SDS011;34873;49.142;9.118;2022-10-04T01:01:48;8.25;;;6.25;;
49061;SDS011;34873;49.142;9.118;2022-10-04T01:04:23;10.07;;;6.82;;
49061;SDS011;34873;49.142;9.118;2022-10-04T01:06:56;7.60;;;6.13;;
49061;SDS011;34873;49.142;9.118;2022-10-04T01:09:22;7.57;;;5.72;;
49061;SDS011;34873;49.142;9.118;2022-10-04T01:11:55;8.32;;;6.10;;
49061;SDS011;34873;49.142;9.118;2022-10-04T01:14:33;8.65;;;6.60;;
49061;SDS011;34873;49.142;9.118;2022-10-04T01:17:03;7.55;;;6.07;;
49061;SDS011;34873;49.142;9.118;2022-10-04T01:19:31;6.78;;;5.35;;
49061;SDS011;34873;49.142;9.118;2022-10-04T01:24:34;6.65;;;5.38;;
49061;SDS011;34873;49.142;9.118;2022-10-04T01:27:03;7.18;;;4.95;;
49061;SDS011;34873;49.142;9.118;2022-10-04T01:29:31;6.18;;;4.53;;
49061;SDS011;34873;49.142;9.118;2022-10-04T01:31:59;6.20;;;4.68;;
49061;SDS011;34873;49.142;9.118;2022-10-04T01:34:28;7.70;;;4.45;;
49061;SDS011;34873;49.142;9.118;2022-10-04T01:36:57;5.57;;;4.63;;
49061;SDS011;34873;49.142;9.118;2022-10-04T01:39:24;5.82;;;5.10;;
49061;SDS011;34873;49.142;9.118;2022-10-04T01:50:02;5.80;;;4.65;;
49061;SDS011;34873;49.142;9.118;2022-10-04T01:52:35;6.03;;;4.18;;
49061;SDS011;34873;49.142;9.118;2022-10-04T01:55:06;4.75;;;3.65;;
49061;SDS011;34873;49.142;9.118;2022-10-04T01:57:35;4.85;;;3.65;;
49061;SDS011;34873;49.142;9.118;2022-10-04T02:00:06;4.72;;;3.90;;
49061;SDS011;34873;49.142;9.118;2022-10-04T02:05:38;3.95;;;3.25;;
49061;SDS011;34873;49.142;9.118;2022-10-04T02:08:08;3.67;;;3.10;;
49061;SDS011;34873;49.142;9.118;2022-10-04T02:10:40;3.58;;;2.97;;
49061;SDS011;34873;49.142;9.118;2022-10-04T02:13:10;4.63;;;3.50;;
49061;SDS011;34873;49.142;9.118;2022-10-04T02:15:41;5.63;;;3.25;;
49061;SDS011;34873;49.142;9.118;2022-10-04T02:18:12;3.60;;;3.10;;
49061;SDS011;34873;49.142;9.118;2022-10-04T02:20:39;3.17;;;2.83;;
49061;SDS011;34873;49.142;9.118;2022-10-04T02:23:08;3.38;;;2.85;;
49061;SDS011;34873;49.142;9.118;2022-10-04T02:25:37;3.05;;;2.67;;
49061;SDS011;34873;49.142;9.118;2022-10-04T02:28:12;3.60;;;2.90;;
49061;SDS011;34873;49.142;9.118;2022-10-04T02:30:42;3.45;;;2.67;;
49061;SDS011;34873;49.142;9.118;2022-10-04T02:33:32;4.35;;;2.40;;
49061;SDS011;34873;49.142;9.118;2022-10-04T02:38:40;3.75;;;2.47;;
49061;SDS011;34873;49.142;9.118;2022-10-04T02:41:20;4.47;;;2.33;;
49061;SDS011;34873;49.142;9.118;2022-10-04T02:49:09;3.58;;;2.33;;
49061;SDS011;34873;49.142;9.118;2022-10-04T02:52:24;3.22;;;2.42;;
49061;SDS011;34873;49.142;9.118;2022-10-04T02:54:36;2.33;;;2.03;;
49061;SDS011;34873;49.142;9.118;2022-10-04T02:57:12;2.33;;;2.13;;
49061;SDS011;34873;49.142;9.118;2022-10-04T02:59:43;2.10;;;1.90;;
49061;SDS011;34873;49.142;9.118;2022-10-04T03:02:21;2.97;;;2.30;;
49061;SDS011;34873;49.142;9.118;2022-10-04T03:04:55;2.03;;;1.80;;
49061;SDS011;34873;49.142;9.118;2022-10-04T03:07:23;1.88;;;1.67;;
49061;SDS011;34873;49.142;9.118;2022-10-04T03:09:49;3.33;;;2.30;;
49061;SDS011;34873;49.142;9.118;2022-10-04T03:12:20;2.08;;;1.70;;
49061;SDS011;34873;49.142;9.118;2022-10-04T03:14:47;2.30;;;1.83;;
49061;SDS011;34873;49.142;9.118;2022-10-04T03:17:15;2.22;;;1.90;;
49061;SDS011;34873;49.142;9.118;2022-10-04T03:19:43;2.40;;;1.73;;
49061;SDS011;34873;49.142;9.118;2022-10-04T03:22:14;2.30;;;1.80;;
49061;SDS011;34873;49.142;9.118;2022-10-04T03:27:13;1.75;;;1.65;;
49061;SDS011;34873;49.142;9.118;2022-10-04T03:29:43;2.22;;;2.03;;
49061;SDS011;34873;49.142;9.118;2022-10-04T03:32:09;2.05;;;1.38;;
49061;SDS011;34873;49.142;9.118;2022-10-04T03:34:40;1.83;;;1.70;;
49061;SDS011;34873;49.142;9.118;2022-10-04T03:37:13;2.95;;;1.63;;
49061;SDS011;34873;49.142;9.118;2022-10-04T03:39:48;2.63;;;1.83;;
49061;SDS011;34873;49.142;9.118;2022-10-04T03:42:15;1.48;;;1.30;;
49061;SDS011;34873;49.142;9.118;2022-10-04T03:44:49;1.63;;;1.52;;
49061;SDS011;34873;49.142;9.118;2022-10-04T03:47:26;2.53;;;1.80;;
49061;SDS011;34873;49.142;9.118;2022-10-04T03:49:58;1.67;;;1.58;;
49061;SDS011;34873;49.142;9.118;2022-10-04T03:52:29;2.85;;;1.80;;
49061;SDS011;34873;49.142;9.118;2022-10-04T03:54:59;2.05;;;1.42;;
49061;SDS011;34873;49.142;9.118;2022-10-04T03:57:28;1.42;;;1.17;;
49061;SDS011;34873;49.142;9.118;2022-10-04T04:00:00;1.65;;;1.50;;
49061;SDS011;34873;49.142;9.118;2022-10-04T04:02:33;1.85;;;1.38;;
49061;SDS011;34873;49.142;9.118;2022-10-04T04:07:32;1.48;;;1.25;;
49061;SDS011;34873;49.142;9.118;2022-10-04T04:12:56;1.65;;;1.42;;
49061;SDS011;34873;49.142;9.118;2022-10-04T04:15:31;1.40;;;1.30;;
49061;SDS011;34873;49.142;9.118;2022-10-04T04:18:01;1.40;;;1.30;;
49061;SDS011;34873;49.142;9.118;2022-10-04T04:20:32;1.30;;;1.20;;
49061;SDS011;34873;49.142;9.118;2022-10-04T04:25:39;1.35;;;1.20;;
49061;SDS011;34873;49.142;9.118;2022-10-04T04:28:23;2.90;;;1.60;;
49061;SDS011;34873;49.142;9.118;2022-10-04T04:30:59;1.33;;;1.10;;
49061;SDS011;34873;49.142;9.118;2022-10-04T04:33:31;1.40;;;1.10;;
49061;SDS011;34873;49.142;9.118;2022-10-04T04:36:04;1.60;;;1.50;;
49061;SDS011;34873;49.142;9.118;2022-10-04T04:38:39;1.80;;;1.65;;
49061;SDS011;34873;49.142;9.118;2022-10-04T04:41:28;1.48;;;1.35;;
49061;SDS011;34873;49.142;9.118;2022-10-04T04:44:02;1.15;;;0.98;;
49061;SDS011;34873;49.142;9.118;2022-10-04T04:49:09;1.45;;;1.35;;
49061;SDS011;34873;49.142;9.118;2022-10-04T04:51:35;1.20;;;1.20;;
49061;SDS011;34873;49.142;9.118;2022-10-04T04:54:01;1.73;;;1.48;;
49061;SDS011;34873;49.142;9.118;2022-10-04T04:56:27;1.05;;;0.95;;
49061;SDS011;34873;49.142;9.118;2022-10-04T04:58:56;1.60;;;1.50;;
49061;SDS011;34873;49.142;9.118;2022-10-04T05:04:22;1.45;;;1.38;;
49061;SDS011;34873;49.142;9.118;2022-10-04T05:06:57;2.00;;;1.65;;
49061;SDS011;34873;49.142;9.118;2022-10-04T05:09:44;1.10;;;1.10;;
49061;SDS011;34873;49.142;9.118;2022-10-04T05:12:14;1.40;;;1.30;;
49061;SDS011;34873;49.142;9.118;2022-10-04T05:14:52;1.35;;;1.25;;
49061;SDS011;34873;49.142;9.118;2022-10-04T05:17:25;1.60;;;1.50;;
49061;SDS011;34873;49.142;9.118;2022-10-04T05:19:55;1.50;;;1.40;;
49061;SDS011;34873;49.142;9.118;2022-10-04T05:22:23;1.30;;;1.20;;
49061;SDS011;34873;49.142;9.118;2022-10-04T05:24:53;1.42;;;1.33;;
49061;SDS011;34873;49.142;9.118;2022-10-04T05:43:58;1.30;;;1.20;;
49061;SDS011;34873;49.142;9.118;2022-10-04T05:46:27;1.98;;;1.60;;
49061;SDS011;34873;49.142;9.118;2022-10-04T05:48:55;1.70;;;1.10;;
49061;SDS011;34873;49.142;9.118;2022-10-04T05:51:33;1.20;;;1.10;;
49061;SDS011;34873;49.142;9.118;2022-10-04T05:54:04;1.17;;;1.08;;
49061;SDS011;34873;49.142;9.118;2022-10-04T06:01:50;0.90;;;0.90;;
49061;SDS011;34873;49.142;9.118;2022-10-04T06:06:58;1.15;;;1.00;;
49061;SDS011;34873;49.142;9.118;2022-10-04T06:09:47;1.10;;;1.00;;
49061;SDS011;34873;49.142;9.118;2022-10-04T06:21:08;1.45;;;1.35;;
49061;SDS011;34873;49.142;9.118;2022-10-04T06:23:50;1.52;;;1.42;;
49061;SDS011;34873;49.142;9.118;2022-10-04T06:26:20;0.90;;;0.90;;
49061;SDS011;34873;49.142;9.118;2022-10-04T06:28:57;1.17;;;1.05;;
49061;SDS011;34873;49.142;9.118;2022-10-04T06:31:42;1.35;;;1.10;;
49061;SDS011;34873;49.142;9.118;2022-10-04T06:45:14;1.50;;;1.33;;
49061;SDS011;34873;49.142;9.118;2022-10-04T06:53:14;1.25;;;1.17;;
49061;SDS011;34873;49.142;9.118;2022-10-04T06:56:13;1.73;;;1.38;;
49061;SDS011;34873;49.142;9.118;2022-10-04T07:00:19;1.92;;;1.02;;
49061;SDS011;34873;49.142;9.118;2022-10-04T07:02:19;2.28;;;1.10;;
49061;SDS011;34873;49.142;9.118;2022-10-04T07:05:01;0.85;;;0.82;;
49061;SDS011;34873;49.142;9.118;2022-10-04T07:10:01;2.00;;;1.10;;
49061;SDS011;34873;49.142;9.118;2022-10-04T07:12:27;2.08;;;1.20;;
49061;SDS011;34873;49.142;9.118;2022-10-04T07:14:59;1.20;;;1.10;;
49061;SDS011;34873;49.142;9.118;2022-10-04T07:17:34;1.52;;;1.30;;
49061;SDS011;34873;49.142;9.118;2022-10-04T07:20:06;1.23;;;1.13;;
49061;SDS011;34873;49.142;9.118;2022-10-04T07:25:41;1.27;;;1.17;;
49061;SDS011;34873;49.142;9.118;2022-10-04T07:33:29;6.10;;;2.85;;
49061;SDS011;34873;49.142;9.118;2022-10-04T07:36:04;5.30;;;3.53;;
49061;SDS011;34873;49.142;9.118;2022-10-04T07:38:32;5.18;;;3.20;;
49061;SDS011;34873;49.142;9.118;2022-10-04T07:41:10;3.80;;;2.78;;
49061;SDS011;34873;49.142;9.118;2022-10-04T07:43:50;8.90;;;3.17;;
49061;SDS011;34873;49.142;9.118;2022-10-04T07:46:34;7.50;;;2.97;;
49061;SDS011;34873;49.142;9.118;2022-10-04T07:49:04;8.45;;;2.75;;
49061;SDS011;34873;49.142;9.118;2022-10-04T07:54:39;8.40;;;3.30;;
49061;SDS011;34873;49.142;9.118;2022-10-04T07:57:39;5.95;;;2.53;;
49061;SDS011;34873;49.142;9.118;2022-10-04T08:00:21;7.00;;;2.80;;
49061;SDS011;34873;49.142;9.118;2022-10-04T08:02:58;3.17;;;1.85;;
49061;SDS011;34873;49.142;9.118;2022-10-04T08:11:51;2.40;;;1.30;;
49061;SDS011;34873;49.142;9.118;2022-10-04T08:17:30;1.90;;;1.52;;
49061;SDS011;34873;49.142;9.118;2022-10-04T08:20:28;2.95;;;1.58;;
49061;SDS011;34873;49.142;9.118;2022-10-04T08:28:52;2.40;;;1.20;;
49061;SDS011;34873;49.142;9.118;2022-10-04T08:34:29;0.98;;;0.57;;
49061;SDS011;34873;49.142;9.118;2022-10-04T08:43:18;0.45;;;0.45;;
49061;SDS011;34873;49.142;9.118;2022-10-04T08:51:37;0.50;;;0.40;;
49061;SDS011;34873;49.142;9.118;2022-10-04T08:57:03;1.35;;;0.85;;
49061;SDS011;34873;49.142;9.118;2022-10-04T09:05:27;3.70;;;1.50;;
49061;SDS011;34873;49.142;9.118;2022-10-04T09:08:08;2.25;;;1.27;;
49061;SDS011;34873;49.142;9.118;2022-10-04T09:10:45;2.75;;;1.40;;
49061;SDS011;34873;49.142;9.118;2022-10-04T09:15:50;2.97;;;0.93;;
49061;SDS011;34873;49.142;9.118;2022-10-04T09:29:06;1.30;;;0.70;;
49061;SDS011;34873;49.142;9.118;2022-10-04T09:36:59;0.68;;;0.57;;
49061;SDS011;34873;49.142;9.118;2022-10-04T09:54:44;0.30;;;0.30;;
49061;SDS011;34873;49.142;9.118;2022-10-04T09:57:21;0.82;;;0.50;;
49061;SDS011;34873;49.142;9.118;2022-10-04T10:08:23;0.63;;;0.40;;
49061;SDS011;34873;49.142;9.118;2022-10-04T10:48:22;0.30;;;0.20;;
49061;SDS011;34873;49.142;9.118;2022-10-04T11:10:05;0.30;;;0.30;;
49061;SDS011;34873;49.142;9.118;2022-10-04T11:12:48;0.38;;;0.38;;
49061;SDS011;34873;49.142;9.118;2022-10-04T11:15:32;2.70;;;0.40;;
49061;SDS011;34873;49.142;9.118;2022-10-04T11:46:57;2.42;;;0.40;;
49061;SDS011;34873;49.142;9.118;2022-10-04T11:49:48;0.50;;;0.30;;
49061;SDS011;34873;49.142;9.118;2022-10-04T11:55:31;0.47;;;0.30;;
49061;SDS011;34873;49.142;9.118;2022-10-04T11:58:19;1.00;;;0.55;;
49061;SDS011;34873;49.142;9.118;2022-10-04T12:06:41;0.70;;;0.40;;
49061;SDS011;34873;49.142;9.118;2022-10-04T12:14:57;0.73;;;0.38;;
49061;SDS011;34873;49.142;9.118;2022-10-04T12:31:26;0.90;;;0.50;;
49061;SDS011;34873;49.142;9.118;2022-10-04T12:44:53;1.42;;;0.63;;
49061;SDS011;34873;49.142;9.118;2022-10-04T12:50:25;2.80;;;0.50;;
49061;SDS011;34873;49.142;9.118;2022-10-04T12:52:53;1.63;;;0.73;;
49061;SDS011;34873;49.142;9.118;2022-10-04T12:58:05;2.33;;;0.40;;
49061;SDS011;34873;49.142;9.118;2022-10-04T13:00:40;1.10;;;0.43;;
49061;SDS011;34873;49.142;9.118;2022-10-04T13:08:51;2.17;;;0.43;;
49061;SDS011;34873;49.142;9.118;2022-10-04T13:11:48;0.60;;;0.43;;
49061;SDS011;34873;49.142;9.118;2022-10-04T13:14:25;0.50;;;0.30;;
49061;SDS011;34873;49.142;9.118;2022-10-04T13:22:57;0.82;;;0.50;;
49061;SDS011;34873;49.142;9.118;2022-10-04T13:30:49;0.80;;;0.40;;
49061;SDS011;34873;49.142;9.118;2022-10-04T13:49:40;0.85;;;0.70;;
49061;SDS011;34873;49.142;9.118;2022-10-04T13:59:15;2.08;;;1.00;;
49061;SDS011;34873;49.142;9.118;2022-10-04T14:32:24;2.83;;;1.00;;
49061;SDS011;34873;49.142;9.118;2022-10-04T14:34:58;2.38;;;1.08;;
49061;SDS011;34873;49.142;9.118;2022-10-04T14:40:59;3.28;;;1.15;;
49061;SDS011;34873;49.142;9.118;2022-10-04T14:54:34;79.13;;;57.78;;
49061;SDS011;34873;49.142;9.118;2022-10-04T15:00:15;72.32;;;53.85;;
49061;SDS011;34873;49.142;9.118;2022-10-04T15:05:54;77.18;;;52.40;;
49061;SDS011;34873;49.142;9.118;2022-10-04T15:11:46;67.13;;;48.83;;
49061;SDS011;34873;49.142;9.118;2022-10-04T15:24:47;60.72;;;42.35;;
49061;SDS011;34873;49.142;9.118;2022-10-04T15:35:28;53.80;;;38.53;;
49061;SDS011;34873;49.142;9.118;2022-10-04T15:38:14;49.15;;;37.75;;
49061;SDS011;34873;49.142;9.118;2022-10-04T15:53:53;47.58;;;35.78;;
49061;SDS011;34873;49.142;9.118;2022-10-04T15:56:36;47.42;;;34.50;;
49061;SDS011;34873;49.142;9.118;2022-10-04T16:01:46;47.95;;;35.65;;
49061;SDS011;34873;49.142;9.118;2022-10-04T16:07:07;47.38;;;34.72;;
49061;SDS011;34873;49.142;9.118;2022-10-04T16:15:44;42.00;;;32.38;;
49061;SDS011;34873;49.142;9.118;2022-10-04T16:21:09;47.53;;;32.63;;
49061;SDS011;34873;49.142;9.118;2022-10-04T16:32:10;44.22;;;31.52;;
49061;SDS011;34873;49.142;9.118;2022-10-04T16:34:54;43.92;;;31.30;;
49061;SDS011;34873;49.142;9.118;2022-10-04T16:39:49;40.60;;;30.52;;
49061;SDS011;34873;49.142;9.118;2022-10-04T16:47:33;40.63;;;28.85;;
49061;SDS011;34873;49.142;9.118;2022-10-04T16:50:02;36.42;;;27.40;;
49061;SDS011;34873;49.142;9.118;2022-10-04T16:53:33;38.03;;;28.23;;
49061;SDS011;34873;49.142;9.118;2022-10-04T16:55:48;41.08;;;28.83;;
49061;SDS011;34873;49.142;9.118;2022-10-04T17:17:43;33.47;;;25.80;;
49061;SDS011;34873;49.142;9.118;2022-10-04T17:28:33;31.58;;;23.05;;
49061;SDS011;34873;49.142;9.118;2022-10-04T17:31:26;31.77;;;23.70;;
49061;SDS011;34873;49.142;9.118;2022-10-04T17:36:40;31.40;;;23.00;;
49061;SDS011;34873;49.142;9.118;2022-10-04T17:42:05;29.20;;;22.15;;
49061;SDS011;34873;49.142;9.118;2022-10-04T17:47:36;29.23;;;21.80;;
49061;SDS011;34873;49.142;9.118;2022-10-04T17:50:38;29.85;;;21.30;;
49061;SDS011;34873;49.142;9.118;2022-10-04T17:53:31;30.25;;;22.55;;
49061;SDS011;34873;49.142;9.118;2022-10-04T17:59:23;26.60;;;19.75;;
49061;SDS011;34873;49.142;9.118;2022-10-04T18:01:51;27.07;;;19.57;;
49061;SDS011;34873;49.142;9.118;2022-10-04T18:04:30;26.52;;;20.08;;
49061;SDS011;34873;49.142;9.118;2022-10-04T18:07:17;24.60;;;18.52;;
49061;SDS011;34873;49.142;9.118;2022-10-04T18:09:52;27.45;;;19.25;;
49061;SDS011;34873;49.142;9.118;2022-10-04T18:12:29;26.60;;;19.02;;
49061;SDS011;34873;49.142;9.118;2022-10-04T18:15:14;24.02;;;17.98;;
49061;SDS011;34873;49.142;9.118;2022-10-04T18:17:45;25.30;;;18.80;;
49061;SDS011;34873;49.142;9.118;2022-10-04T18:22:56;24.13;;;18.33;;
49061;SDS011;34873;49.142;9.118;2022-10-04T18:25:24;26.13;;;18.08;;
49061;SDS011;34873;49.142;9.118;2022-10-04T18:30:26;25.60;;;17.80;;
49061;SDS011;34873;49.142;9.118;2022-10-04T18:32:54;22.35;;;15.88;;
49061;SDS011;34873;49.142;9.118;2022-10-04T18:35:25;20.15;;;16.08;;
49061;SDS011;34873;49.142;9.118;2022-10-04T18:38:41;21.90;;;16.33;;
49061;SDS011;34873;49.142;9.118;2022-10-04T18:40:59;22.02;;;15.32;;
49061;SDS011;34873;49.142;9.118;2022-10-04T18:43:34;21.15;;;15.63;;
49061;SDS011;34873;49.142;9.118;2022-10-04T18:46:01;20.63;;;15.40;;
49061;SDS011;34873;49.142;9.118;2022-10-04T18:48:36;19.90;;;14.40;;
49061;SDS011;34873;49.142;9.118;2022-10-04T19:00:11;19.88;;;14.85;;
49061;SDS011;34873;49.142;9.118;2022-10-04T19:13:50;17.10;;;12.73;;
49061;SDS011;34873;49.142;9.118;2022-10-04T19:17:00;17.90;;;12.95;;
49061;SDS011;34873;49.142;9.118;2022-10-04T19:20:33;17.67;;;12.40;;
49061;SDS011;34873;49.142;9.118;2022-10-04T19:30:58;15.25;;;11.48;;
49061;SDS011;34873;49.142;9.118;2022-10-04T19:36:09;13.40;;;10.57;;
49061;SDS011;34873;49.142;9.118;2022-10-04T19:38:46;14.32;;;10.38;;
49061;SDS011;34873;49.142;9.118;2022-10-04T19:44:16;15.60;;;11.35;;
49061;SDS011;34873;49.142;9.118;2022-10-04T19:46:50;13.32;;;9.80;;
49061;SDS011;34873;49.142;9.118;2022-10-04T19:58:54;11.98;;;9.45;;
49061;SDS011;34873;49.142;9.118;2022-10-04T20:01:13;11.38;;;8.95;;
49061;SDS011;34873;49.142;9.118;2022-10-04T20:03:40;11.05;;;8.82;;
49061;SDS011;34873;49.142;9.118;2022-10-04T20:06:05;13.35;;;9.63;;
49061;SDS011;34873;49.142;9.118;2022-10-04T20:11:27;12.15;;;8.82;;
49061;SDS011;34873;49.142;9.118;2022-10-04T20:19:20;10.15;;;7.93;;
49061;SDS011;34873;49.142;9.118;2022-10-04T20:34:53;10.25;;;7.40;;
49061;SDS011;34873;49.142;9.118;2022-10-04T20:37:20;9.95;;;6.90;;
49061;SDS011;34873;49.142;9.118;2022-10-04T20:42:29;8.85;;;7.10;;
49061;SDS011;34873;49.142;9.118;2022-10-04T20:44:56;7.72;;;5.75;;
49061;SDS011;34873;49.142;9.118;2022-10-04T20:47:35;8.70;;;6.45;;
49061;SDS011;34873;49.142;9.118;2022-10-04T20:50:30;8.30;;;6.75;;
49061;SDS011;34873;49.142;9.118;2022-10-04T20:53:00;9.77;;;6.78;;
49061;SDS011;34873;49.142;9.118;2022-10-04T20:55:29;9.27;;;6.82;;
49061;SDS011;34873;49.142;9.118;2022-10-04T20:58:00;9.15;;;7.10;;
49061;SDS011;34873;49.142;9.118;2022-10-04T21:00:30;7.68;;;6.00;;
49061;SDS011;34873;49.142;9.118;2022-10-04T21:03:16;7.85;;;6.10;;
49061;SDS011;34873;49.142;9.118;2022-10-04T21:05:57;7.15;;;5.72;;
49061;SDS011;34873;49.142;9.118;2022-10-04T21:08:24;7.20;;;5.70;;
49061;SDS011;34873;49.142;9.118;2022-10-04T21:11:15;8.10;;;6.05;;
49061;SDS011;34873;49.142;9.118;2022-10-04T21:21:55;7.38;;;5.40;;
49061;SDS011;34873;49.142;9.118;2022-10-04T21:24:36;6.68;;;5.05;;
49061;SDS011;34873;49.142;9.118;2022-10-04T21:27:33;5.90;;;4.72;;
49061;SDS011;34873;49.142;9.118;2022-10-04T21:30:11;6.68;;;5.20;;
49061;SDS011;34873;49.142;9.118;2022-10-04T21:32:38;5.68;;;4.80;;
49061;SDS011;34873;49.142;9.118;2022-10-04T21:35:04;6.60;;;4.95;;
49061;SDS011;34873;49.142;9.118;2022-10-04T21:37:30;6.30;;;4.68;;
49061;SDS011;34873;49.142;9.118;2022-10-04T21:40:01;7.13;;;4.78;;
49061;SDS011;34873;49.142;9.118;2022-10-04T21:42:26;7.38;;;5.10;;
49061;SDS011;34873;49.142;9.118;2022-10-04T21:44:52;4.72;;;3.88;;
49061;SDS011;34873;49.142;9.118;2022-10-04T21:47:18;5.18;;;4.03;;
49061;SDS011;34873;49.142;9.118;2022-10-04T21:49:46;5.60;;;4.53;;
49061;SDS011;34873;49.142;9.118;2022-10-04T21:52:12;5.53;;;4.20;;
49061;SDS011;34873;49.142;9.118;2022-10-04T21:54:42;5.47;;;4.35;;
49061;SDS011;34873;49.142;9.118;2022-10-04T21:57:08;5.10;;;4.60;;
49061;SDS011;34873;49.142;9.118;2022-10-04T21:59:36;5.63;;;3.92;;
49061;SDS011;34873;49.142;9.118;2022-10-04T22:02:02;6.50;;;4.43;;
49061;SDS011;34873;49.142;9.118;2022-10-04T22:04:27;4.72;;;3.80;;
49061;SDS011;34873;49.142;9.118;2022-10-04T22:06:53;5.15;;;3.63;;
49061;SDS011;34873;49.142;9.118;2022-10-04T22:09:18;4.40;;;3.53;;
49061;SDS011;34873;49.142;9.118;2022-10-04T22:11:44;3.80;;;3.40;;
49061;SDS011;34873;49.142;9.118;2022-10-04T22:14:09;6.28;;;4.15;;
49061;SDS011;34873;49.142;9.118;2022-10-04T22:16:35;5.97;;;2.97;;
49061;SDS011;34873;49.142;9.118;2022-10-04T22:19:00;6.22;;;2.50;;
49061;SDS011;34873;49.142;9.118;2022-10-04T22:21:26;3.17;;;1.90;;
49061;SDS011;34873;49.142;9.118;2022-10-04T22:23:51;3.83;;;1.85;;
49061;SDS011;34873;49.142;9.118;2022-10-04T22:26:18;5.20;;;1.98;;
49061;SDS011;34873;49.142;9.118;2022-10-04T22:28:53;5.45;;;1.83;;
49061;SDS011;34873;49.142;9.118;2022-10-04T22:31:26;12.45;;;2.15;;
49061;SDS011;34873;49.142;9.118;2022-10-04T22:33:53;4.35;;;1.95;;
49061;SDS011;34873;49.142;9.118;2022-10-04T22:38:47;4.15;;;1.50;;
49061;SDS011;34873;49.142;9.118;2022-10-04T22:41:16;10.10;;;1.13;;
49061;SDS011;34873;49.142;9.118;2022-10-04T22:43:47;6.75;;;1.20;;
49061;SDS011;34873;49.142;9.118;2022-10-04T22:46:17;3.42;;;1.23;;
49061;SDS011;34873;49.142;9.118;2022-10-04T22:48:44;2.42;;;0.85;;
49061;SDS011;34873;49.142;9.118;2022-10-04T22:51:11;4.25;;;0.70;;
49061;SDS011;34873;49.142;9.118;2022-10-04T22:53:40;0.68;;;0.45;;
49061;SDS011;34873;49.142;9.118;2022-10-04T22:56:07;2.50;;;1.15;;
49061;SDS011;34873;49.142;9.118;2022-10-04T22:58:35;1.10;;;0.77;;
49061;SDS011;34873;49.142;9.118;2022-10-04T23:01:00;0.95;;;0.50;;
49061;SDS011;34873;49.142;9.118;2022-10-04T23:03:27;2.17;;;0.45;;
49061;SDS011;34873;49.142;9.118;2022-10-04T23:05:57;0.77;;;0.50;;
49061;SDS011;34873;49.142;9.118;2022-10-04T23:08:23;10.10;;;7.22;;
49061;SDS011;34873;49.142;9.118;2022-10-04T23:11:07;30.52;;;20.27;;
49061;SDS011;34873;49.142;9.118;2022-10-04T23:13:33;63.42;;;43.85;;
49061;SDS011;34873;49.142;9.118;2022-10-04T23:16:00;80.55;;;58.92;;
49061;SDS011;34873;49.142;9.118;2022-10-04T23:18:33;78.22;;;55.95;;
49061;SDS011;34873;49.142;9.118;2022-10-04T23:21:18;74.88;;;54.70;;
49061;SDS011;34873;49.142;9.118;2022-10-04T23:23:46;65.93;;;48.28;;
49061;SDS011;34873;49.142;9.118;2022-10-04T23:26:15;61.60;;;44.50;;
49061;SDS011;34873;49.142;9.118;2022-10-04T23:28:46;62.40;;;43.58;;
49061;SDS011;34873;49.142;9.118;2022-10-04T23:31:23;56.30;;;41.22;;
49061;SDS011;34873;49.142;9.118;2022-10-04T23:33:50;51.60;;;37.15;;
49061;SDS011;34873;49.142;9.118;2022-10-04T23:36:20;48.30;;;34.60;;
49061;SDS011;34873;49.142;9.118;2022-10-04T23:38:50;45.80;;;32.75;;
49061;SDS011;34873;49.142;9.118;2022-10-04T23:41:25;41.28;;;30.05;;
49061;SDS011;34873;49.142;9.118;2022-10-04T23:43:54;37.30;;;28.40;;
49061;SDS011;34873;49.142;9.118;2022-10-04T23:46:22;35.42;;;26.38;;
49061;SDS011;34873;49.142;9.118;2022-10-04T23:48:51;35.33;;;25.90;;
49061;SDS011;34873;49.142;9.118;2022-10-04T23:51:17;30.42;;;23.00;;
49061;SDS011;34873;49.142;9.118;2022-10-04T23:53:44;28.80;;;22.33;;
49061;SDS011;34873;49.142;9.118;2022-10-04T23:56:16;27.95;;;21.25;;
49061;SDS011;34873;49.142;9.118;2022-10-04T23:58:50;24.50;;;18.88;;
